sensor_id;sensor_type;location;lat;lon;timestamp;temperature;humidity
19025;DHT22;9645;51.448;6.260;2022-09-29T00:00:56;7.10;99.90
19025;DHT22;9645;51.448;6.260;2022-09-29T00:03:24;7.00;99.90
19025;DHT22;9645;51.448;6.260;2022-09-29T00:05:52;7.00;99.90
19025;DHT22;9645;51.448;6.260;2022-09-29T00:08:21;6.90;99.90
19025;DHT22;9645;51.448;6.260;2022-09-29T00:10:50;6.80;99.90
19025;DHT22;9645;51.448;6.260;2022-09-29T00:13:17;6.80;99.90
19025;DHT22;9645;51.448;6.260;2022-09-29T00:15:53;6.80;99.90
19025;DHT22;9645;51.448;6.260;2022-09-29T00:18:20;6.80;99.90
19025;DHT22;9645;51.448;6.260;2022-09-29T00:20:55;6.80;99.90
19025;DHT22;9645;51.448;6.260;2022-09-29T00:23:23;6.80;99.90
19025;DHT22;9645;51.448;6.260;2022-09-29T00:26:01;6.80;99.90
19025;DHT22;9645;51.448;6.260;2022-09-29T00:28:29;6.80;99.90
19025;DHT22;9645;51.448;6.260;2022-09-29T00:30:57;6.70;99.90
19025;DHT22;9645;51.448;6.260;2022-09-29T00:33:24;6.70;99.90
19025;DHT22;9645;51.448;6.260;2022-09-29T00:35:59;6.70;99.90
19025;DHT22;9645;51.448;6.260;2022-09-29T00:38:27;6.60;99.90
19025;DHT22;9645;51.448;6.260;2022-09-29T00:40:54;6.60;99.90
19025;DHT22;9645;51.448;6.260;2022-09-29T00:43:24;6.60;99.90
19025;DHT22;9645;51.448;6.260;2022-09-29T00:45:53;6.60;99.90
19025;DHT22;9645;51.448;6.260;2022-09-29T00:48:28;6.60;99.90
19025;DHT22;9645;51.448;6.260;2022-09-29T00:50:56;6.60;99.90
19025;DHT22;9645;51.448;6.260;2022-09-29T00:53:25;6.60;99.90
19025;DHT22;9645;51.448;6.260;2022-09-29T00:55:57;6.60;99.90
19025;DHT22;9645;51.448;6.260;2022-09-29T00:58:31;6.60;99.90
19025;DHT22;9645;51.448;6.260;2022-09-29T01:00:59;6.70;99.90
19025;DHT22;9645;51.448;6.260;2022-09-29T01:03:27;6.60;99.90
19025;DHT22;9645;51.448;6.260;2022-09-29T01:05:58;6.50;99.90
19025;DHT22;9645;51.448;6.260;2022-09-29T01:08:29;6.50;99.90
19025;DHT22;9645;51.448;6.260;2022-09-29T01:11:01;6.40;99.90
19025;DHT22;9645;51.448;6.260;2022-09-29T01:13:32;6.50;99.90
19025;DHT22;9645;51.448;6.260;2022-09-29T01:15:59;6.50;99.90
19025;DHT22;9645;51.448;6.260;2022-09-29T01:18:26;6.50;99.90
19025;DHT22;9645;51.448;6.260;2022-09-29T01:21:00;6.50;99.90
19025;DHT22;9645;51.448;6.260;2022-09-29T01:27:01;6.50;99.90
19025;DHT22;9645;51.448;6.260;2022-09-29T01:32:48;6.40;99.90
19025;DHT22;9645;51.448;6.260;2022-09-29T01:35:23;6.40;99.90
19025;DHT22;9645;51.448;6.260;2022-09-29T01:38:01;6.40;99.90
19025;DHT22;9645;51.448;6.260;2022-09-29T01:40:34;6.30;99.90
19025;DHT22;9645;51.448;6.260;2022-09-29T01:43:08;6.30;99.90
19025;DHT22;9645;51.448;6.260;2022-09-29T01:45:37;6.30;99.90
19025;DHT22;9645;51.448;6.260;2022-09-29T01:48:10;6.20;99.90
19025;DHT22;9645;51.448;6.260;2022-09-29T01:50:43;6.30;99.90
19025;DHT22;9645;51.448;6.260;2022-09-29T01:53:14;6.30;99.90
19025;DHT22;9645;51.448;6.260;2022-09-29T01:55:44;6.30;99.90
19025;DHT22;9645;51.448;6.260;2022-09-29T01:58:16;6.30;99.90
19025;DHT22;9645;51.448;6.260;2022-09-29T02:00:48;6.30;99.90
19025;DHT22;9645;51.448;6.260;2022-09-29T02:03:19;6.30;99.90
19025;DHT22;9645;51.448;6.260;2022-09-29T02:05:50;6.20;99.90
19025;DHT22;9645;51.448;6.260;2022-09-29T02:08:21;6.30;99.90
19025;DHT22;9645;51.448;6.260;2022-09-29T02:10:53;6.20;99.90
19025;DHT22;9645;51.448;6.260;2022-09-29T02:13:22;6.20;99.90
19025;DHT22;9645;51.448;6.260;2022-09-29T02:15:52;6.10;99.90
19025;DHT22;9645;51.448;6.260;2022-09-29T02:18:26;6.10;99.90
19025;DHT22;9645;51.448;6.260;2022-09-29T02:20:55;6.00;99.90
19025;DHT22;9645;51.448;6.260;2022-09-29T02:23:21;6.00;99.90
19025;DHT22;9645;51.448;6.260;2022-09-29T02:28:28;6.00;99.90
19025;DHT22;9645;51.448;6.260;2022-09-29T02:30:55;5.90;99.90
19025;DHT22;9645;51.448;6.260;2022-09-29T02:33:23;5.90;99.90
19025;DHT22;9645;51.448;6.260;2022-09-29T02:35:58;5.80;99.90
19025;DHT22;9645;51.448;6.260;2022-09-29T02:38:34;5.80;99.90
19025;DHT22;9645;51.448;6.260;2022-09-29T02:41:06;5.80;99.90
19025;DHT22;9645;51.448;6.260;2022-09-29T02:46:54;5.70;99.90
19025;DHT22;9645;51.448;6.260;2022-09-29T02:49:31;5.80;99.90
19025;DHT22;9645;51.448;6.260;2022-09-29T02:52:04;5.80;99.90
19025;DHT22;9645;51.448;6.260;2022-09-29T02:54:54;5.90;99.90
19025;DHT22;9645;51.448;6.260;2022-09-29T02:57:30;5.80;99.90
19025;DHT22;9645;51.448;6.260;2022-09-29T03:00:04;5.80;99.90
19025;DHT22;9645;51.448;6.260;2022-09-29T03:02:34;5.80;99.90
19025;DHT22;9645;51.448;6.260;2022-09-29T03:05:02;5.80;99.90
19025;DHT22;9645;51.448;6.260;2022-09-29T03:07:29;5.70;99.90
19025;DHT22;9645;51.448;6.260;2022-09-29T03:09:56;5.60;99.90
19025;DHT22;9645;51.448;6.260;2022-09-29T03:12:23;5.60;99.90
19025;DHT22;9645;51.448;6.260;2022-09-29T03:14:50;5.60;99.90
19025;DHT22;9645;51.448;6.260;2022-09-29T03:17:18;5.60;99.90
19025;DHT22;9645;51.448;6.260;2022-09-29T03:19:45;5.50;99.90
19025;DHT22;9645;51.448;6.260;2022-09-29T03:22:12;5.50;99.90
19025;DHT22;9645;51.448;6.260;2022-09-29T03:24:39;5.50;99.90
19025;DHT22;9645;51.448;6.260;2022-09-29T03:27:06;5.40;99.90
19025;DHT22;9645;51.448;6.260;2022-09-29T03:29:34;5.40;99.90
19025;DHT22;9645;51.448;6.260;2022-09-29T03:32:01;5.50;99.90
19025;DHT22;9645;51.448;6.260;2022-09-29T03:34:29;5.50;99.90
19025;DHT22;9645;51.448;6.260;2022-09-29T03:36:56;5.50;99.90
19025;DHT22;9645;51.448;6.260;2022-09-29T03:39:23;5.50;99.90
19025;DHT22;9645;51.448;6.260;2022-09-29T03:41:51;5.40;99.90
19025;DHT22;9645;51.448;6.260;2022-09-29T03:44:18;5.50;99.90
19025;DHT22;9645;51.448;6.260;2022-09-29T03:46:45;5.40;99.90
19025;DHT22;9645;51.448;6.260;2022-09-29T03:49:12;5.30;99.90
19025;DHT22;9645;51.448;6.260;2022-09-29T03:51:41;5.30;99.90
19025;DHT22;9645;51.448;6.260;2022-09-29T03:54:09;5.30;99.90
19025;DHT22;9645;51.448;6.260;2022-09-29T03:56:36;5.30;99.90
19025;DHT22;9645;51.448;6.260;2022-09-29T03:59:04;5.30;99.90
19025;DHT22;9645;51.448;6.260;2022-09-29T04:01:33;5.20;99.90
19025;DHT22;9645;51.448;6.260;2022-09-29T04:04:00;5.20;99.90
19025;DHT22;9645;51.448;6.260;2022-09-29T04:06:27;5.30;99.90
19025;DHT22;9645;51.448;6.260;2022-09-29T04:08:55;5.30;99.90
19025;DHT22;9645;51.448;6.260;2022-09-29T04:11:22;5.30;99.90
19025;DHT22;9645;51.448;6.260;2022-09-29T04:13:49;5.20;99.90
19025;DHT22;9645;51.448;6.260;2022-09-29T04:16:16;5.20;99.90
19025;DHT22;9645;51.448;6.260;2022-09-29T04:18:43;5.10;99.90
19025;DHT22;9645;51.448;6.260;2022-09-29T04:21:11;5.10;99.90
19025;DHT22;9645;51.448;6.260;2022-09-29T04:23:38;5.10;99.90
19025;DHT22;9645;51.448;6.260;2022-09-29T04:26:07;5.00;99.90
19025;DHT22;9645;51.448;6.260;2022-09-29T04:28:35;4.90;99.90
19025;DHT22;9645;51.448;6.260;2022-09-29T04:31:02;4.90;99.90
19025;DHT22;9645;51.448;6.260;2022-09-29T04:33:29;4.90;99.90
19025;DHT22;9645;51.448;6.260;2022-09-29T04:35:57;4.80;99.90
19025;DHT22;9645;51.448;6.260;2022-09-29T04:38:25;4.80;99.90
19025;DHT22;9645;51.448;6.260;2022-09-29T04:40:52;4.80;99.90
19025;DHT22;9645;51.448;6.260;2022-09-29T04:43:21;4.80;99.90
19025;DHT22;9645;51.448;6.260;2022-09-29T04:45:48;4.80;99.90
19025;DHT22;9645;51.448;6.260;2022-09-29T04:48:15;4.80;99.90
19025;DHT22;9645;51.448;6.260;2022-09-29T04:50:42;4.80;99.90
19025;DHT22;9645;51.448;6.260;2022-09-29T04:53:10;4.70;99.90
19025;DHT22;9645;51.448;6.260;2022-09-29T04:55:37;4.60;99.90
19025;DHT22;9645;51.448;6.260;2022-09-29T04:58:04;4.60;99.90
19025;DHT22;9645;51.448;6.260;2022-09-29T05:00:33;4.60;99.90
19025;DHT22;9645;51.448;6.260;2022-09-29T05:03:00;4.60;99.90
19025;DHT22;9645;51.448;6.260;2022-09-29T05:05:28;4.50;99.90
19025;DHT22;9645;51.448;6.260;2022-09-29T05:07:55;4.50;99.90
19025;DHT22;9645;51.448;6.260;2022-09-29T05:10:24;4.50;99.90
19025;DHT22;9645;51.448;6.260;2022-09-29T05:12:51;4.60;99.90
19025;DHT22;9645;51.448;6.260;2022-09-29T05:15:18;4.60;99.90
19025;DHT22;9645;51.448;6.260;2022-09-29T05:17:46;4.70;99.90
19025;DHT22;9645;51.448;6.260;2022-09-29T05:20:13;4.60;99.90
19025;DHT22;9645;51.448;6.260;2022-09-29T05:22:41;4.60;99.90
19025;DHT22;9645;51.448;6.260;2022-09-29T05:25:08;4.60;99.90
19025;DHT22;9645;51.448;6.260;2022-09-29T05:27:36;4.70;99.90
19025;DHT22;9645;51.448;6.260;2022-09-29T05:30:04;4.70;99.90
19025;DHT22;9645;51.448;6.260;2022-09-29T05:32:31;4.80;99.90
19025;DHT22;9645;51.448;6.260;2022-09-29T05:34:59;4.90;99.90
19025;DHT22;9645;51.448;6.260;2022-09-29T05:37:27;4.90;99.90
19025;DHT22;9645;51.448;6.260;2022-09-29T05:39:54;4.90;99.90
19025;DHT22;9645;51.448;6.260;2022-09-29T05:42:21;5.10;99.90
19025;DHT22;9645;51.448;6.260;2022-09-29T05:44:50;5.00;99.90
19025;DHT22;9645;51.448;6.260;2022-09-29T05:47:17;5.10;99.90
19025;DHT22;9645;51.448;6.260;2022-09-29T05:49:44;5.10;99.90
19025;DHT22;9645;51.448;6.260;2022-09-29T05:52:12;5.10;99.90
19025;DHT22;9645;51.448;6.260;2022-09-29T05:54:39;5.10;99.90
19025;DHT22;9645;51.448;6.260;2022-09-29T05:57:08;5.10;99.90
19025;DHT22;9645;51.448;6.260;2022-09-29T05:59:38;5.20;99.90
19025;DHT22;9645;51.448;6.260;2022-09-29T06:02:05;5.20;99.90
19025;DHT22;9645;51.448;6.260;2022-09-29T06:04:32;5.30;99.90
19025;DHT22;9645;51.448;6.260;2022-09-29T06:07:00;5.30;99.90
19025;DHT22;9645;51.448;6.260;2022-09-29T06:09:28;5.30;99.90
19025;DHT22;9645;51.448;6.260;2022-09-29T06:11:55;5.40;99.90
19025;DHT22;9645;51.448;6.260;2022-09-29T06:14:24;5.40;99.90
19025;DHT22;9645;51.448;6.260;2022-09-29T06:16:51;5.40;99.90
19025;DHT22;9645;51.448;6.260;2022-09-29T06:19:18;5.50;99.90
19025;DHT22;9645;51.448;6.260;2022-09-29T06:21:45;6.50;99.90
19025;DHT22;9645;51.448;6.260;2022-09-29T06:24:12;8.00;99.90
19025;DHT22;9645;51.448;6.260;2022-09-29T06:26:40;9.60;99.90
19025;DHT22;9645;51.448;6.260;2022-09-29T06:29:07;10.80;99.90
19025;DHT22;9645;51.448;6.260;2022-09-29T06:31:34;11.50;99.90
19025;DHT22;9645;51.448;6.260;2022-09-29T06:34:03;11.00;99.90
19025;DHT22;9645;51.448;6.260;2022-09-29T06:36:33;10.50;99.90
19025;DHT22;9645;51.448;6.260;2022-09-29T06:39:18;10.90;99.90
19025;DHT22;9645;51.448;6.260;2022-09-29T06:41:46;12.90;99.90
19025;DHT22;9645;51.448;6.260;2022-09-29T06:44:18;14.40;99.90
19025;DHT22;9645;51.448;6.260;2022-09-29T06:46:45;15.40;99.90
19025;DHT22;9645;51.448;6.260;2022-09-29T06:49:13;15.00;99.90
19025;DHT22;9645;51.448;6.260;2022-09-29T06:51:41;13.70;99.90
19025;DHT22;9645;51.448;6.260;2022-09-29T06:54:09;12.30;99.90
19025;DHT22;9645;51.448;6.260;2022-09-29T06:56:36;11.40;99.90
19025;DHT22;9645;51.448;6.260;2022-09-29T06:59:04;10.60;99.90
19025;DHT22;9645;51.448;6.260;2022-09-29T07:01:31;10.10;99.90
19025;DHT22;9645;51.448;6.260;2022-09-29T07:03:58;9.70;99.90
19025;DHT22;9645;51.448;6.260;2022-09-29T07:06:27;9.50;99.90
19025;DHT22;9645;51.448;6.260;2022-09-29T07:08:55;9.30;99.90
19025;DHT22;9645;51.448;6.260;2022-09-29T07:11:22;9.20;99.90
19025;DHT22;9645;51.448;6.260;2022-09-29T07:13:49;9.20;99.90
19025;DHT22;9645;51.448;6.260;2022-09-29T07:16:18;9.20;99.90
19025;DHT22;9645;51.448;6.260;2022-09-29T07:18:45;9.20;99.90
19025;DHT22;9645;51.448;6.260;2022-09-29T07:21:14;9.30;99.90
19025;DHT22;9645;51.448;6.260;2022-09-29T07:23:43;9.80;99.90
19025;DHT22;9645;51.448;6.260;2022-09-29T07:26:10;9.90;99.90
19025;DHT22;9645;51.448;6.260;2022-09-29T07:28:38;13.70;99.90
19025;DHT22;9645;51.448;6.260;2022-09-29T07:31:06;16.00;99.90
19025;DHT22;9645;51.448;6.260;2022-09-29T07:33:35;17.90;99.90
19025;DHT22;9645;51.448;6.260;2022-09-29T07:36:02;19.30;99.90
19025;DHT22;9645;51.448;6.260;2022-09-29T07:38:29;20.10;99.90
19025;DHT22;9645;51.448;6.260;2022-09-29T07:40:59;21.50;99.90
19025;DHT22;9645;51.448;6.260;2022-09-29T07:43:27;22.20;97.50
19025;DHT22;9645;51.448;6.260;2022-09-29T07:45:54;22.80;96.90
19025;DHT22;9645;51.448;6.260;2022-09-29T07:48:21;22.90;95.00
19025;DHT22;9645;51.448;6.260;2022-09-29T07:50:49;23.10;95.70
19025;DHT22;9645;51.448;6.260;2022-09-29T07:53:17;22.80;95.80
19025;DHT22;9645;51.448;6.260;2022-09-29T07:55:44;22.50;98.20
19025;DHT22;9645;51.448;6.260;2022-09-29T07:58:11;22.00;97.00
19025;DHT22;9645;51.448;6.260;2022-09-29T08:00:38;21.20;99.50
19025;DHT22;9645;51.448;6.260;2022-09-29T08:03:06;21.40;98.80
19025;DHT22;9645;51.448;6.260;2022-09-29T08:05:33;21.40;98.00
19025;DHT22;9645;51.448;6.260;2022-09-29T08:08:03;22.20;94.60
19025;DHT22;9645;51.448;6.260;2022-09-29T08:10:31;25.10;90.90
19025;DHT22;9645;51.448;6.260;2022-09-29T08:12:58;25.70;85.90
19025;DHT22;9645;51.448;6.260;2022-09-29T08:15:25;26.70;75.00
19025;DHT22;9645;51.448;6.260;2022-09-29T08:17:53;27.30;71.70
19025;DHT22;9645;51.448;6.260;2022-09-29T08:20:21;27.50;69.60
19025;DHT22;9645;51.448;6.260;2022-09-29T08:25:17;28.10;61.60
19025;DHT22;9645;51.448;6.260;2022-09-29T08:27:44;28.60;62.40
19025;DHT22;9645;51.448;6.260;2022-09-29T08:30:11;29.20;63.20
19025;DHT22;9645;51.448;6.260;2022-09-29T08:32:38;29.10;57.70
19025;DHT22;9645;51.448;6.260;2022-09-29T08:35:06;29.90;55.70
19025;DHT22;9645;51.448;6.260;2022-09-29T08:37:33;29.30;53.90
19025;DHT22;9645;51.448;6.260;2022-09-29T08:40:00;29.70;55.70
19025;DHT22;9645;51.448;6.260;2022-09-29T08:42:41;30.30;55.90
19025;DHT22;9645;51.448;6.260;2022-09-29T08:45:13;30.30;49.90
19025;DHT22;9645;51.448;6.260;2022-09-29T08:47:46;30.10;52.70
19025;DHT22;9645;51.448;6.260;2022-09-29T08:50:21;29.90;51.60
19025;DHT22;9645;51.448;6.260;2022-09-29T08:52:54;30.40;50.80
19025;DHT22;9645;51.448;6.260;2022-09-29T08:55:26;30.70;48.70
19025;DHT22;9645;51.448;6.260;2022-09-29T08:57:57;31.60;48.60
19025;DHT22;9645;51.448;6.260;2022-09-29T09:00:32;31.00;47.60
19025;DHT22;9645;51.448;6.260;2022-09-29T09:03:40;31.00;48.30
19025;DHT22;9645;51.448;6.260;2022-09-29T09:06:19;31.30;47.00
19025;DHT22;9645;51.448;6.260;2022-09-29T09:09:09;31.00;46.80
19025;DHT22;9645;51.448;6.260;2022-09-29T09:11:49;31.10;48.20
19025;DHT22;9645;51.448;6.260;2022-09-29T09:14:36;31.40;47.40
19025;DHT22;9645;51.448;6.260;2022-09-29T09:17:19;32.00;48.20
19025;DHT22;9645;51.448;6.260;2022-09-29T09:20:11;33.00;46.30
19025;DHT22;9645;51.448;6.260;2022-09-29T09:22:51;33.50;43.70
19025;DHT22;9645;51.448;6.260;2022-09-29T09:25:28;33.20;43.90
19025;DHT22;9645;51.448;6.260;2022-09-29T09:28:07;32.50;42.40
19025;DHT22;9645;51.448;6.260;2022-09-29T09:30:42;32.60;44.20
19025;DHT22;9645;51.448;6.260;2022-09-29T09:33:18;32.30;44.00
19025;DHT22;9645;51.448;6.260;2022-09-29T09:35:48;33.50;41.10
19025;DHT22;9645;51.448;6.260;2022-09-29T09:38:18;32.80;40.40
19025;DHT22;9645;51.448;6.260;2022-09-29T09:40:49;32.10;42.30
19025;DHT22;9645;51.448;6.260;2022-09-29T09:43:21;32.10;42.60
19025;DHT22;9645;51.448;6.260;2022-09-29T09:45:56;32.60;41.60
19025;DHT22;9645;51.448;6.260;2022-09-29T09:48:29;33.20;42.80
19025;DHT22;9645;51.448;6.260;2022-09-29T09:50:58;33.40;41.20
19025;DHT22;9645;51.448;6.260;2022-09-29T09:53:30;33.00;40.60
19025;DHT22;9645;51.448;6.260;2022-09-29T09:56:04;32.60;41.10
19025;DHT22;9645;51.448;6.260;2022-09-29T09:58:58;31.70;40.30
19025;DHT22;9645;51.448;6.260;2022-09-29T10:01:29;32.00;41.60
19025;DHT22;9645;51.448;6.260;2022-09-29T10:03:57;31.50;42.30
19025;DHT22;9645;51.448;6.260;2022-09-29T10:06:25;31.80;43.10
19025;DHT22;9645;51.448;6.260;2022-09-29T10:08:53;31.10;41.80
19025;DHT22;9645;51.448;6.260;2022-09-29T10:11:25;31.10;41.20
19025;DHT22;9645;51.448;6.260;2022-09-29T10:13:58;31.90;41.70
19025;DHT22;9645;51.448;6.260;2022-09-29T10:16:34;31.90;43.50
19025;DHT22;9645;51.448;6.260;2022-09-29T10:19:06;32.70;42.40
19025;DHT22;9645;51.448;6.260;2022-09-29T10:21:37;32.50;40.80
19025;DHT22;9645;51.448;6.260;2022-09-29T10:24:19;31.60;41.60
19025;DHT22;9645;51.448;6.260;2022-09-29T10:26:47;32.00;42.80
19025;DHT22;9645;51.448;6.260;2022-09-29T10:29:22;32.30;43.30
19025;DHT22;9645;51.448;6.260;2022-09-29T10:32:03;33.00;41.90
19025;DHT22;9645;51.448;6.260;2022-09-29T10:34:32;32.00;39.90
19025;DHT22;9645;51.448;6.260;2022-09-29T10:37:02;29.50;41.90
19025;DHT22;9645;51.448;6.260;2022-09-29T10:39:38;27.30;48.30
19025;DHT22;9645;51.448;6.260;2022-09-29T10:42:16;25.20;54.20
19025;DHT22;9645;51.448;6.260;2022-09-29T10:44:49;25.70;58.60
19025;DHT22;9645;51.448;6.260;2022-09-29T10:47:19;26.80;56.70
19025;DHT22;9645;51.448;6.260;2022-09-29T10:49:47;28.90;53.00
19025;DHT22;9645;51.448;6.260;2022-09-29T10:52:23;30.70;48.50
19025;DHT22;9645;51.448;6.260;2022-09-29T10:54:56;31.80;41.30
19025;DHT22;9645;51.448;6.260;2022-09-29T10:57:26;31.30;41.30
19025;DHT22;9645;51.448;6.260;2022-09-29T10:59:54;32.00;43.70
19025;DHT22;9645;51.448;6.260;2022-09-29T11:02:27;32.70;41.70
19025;DHT22;9645;51.448;6.260;2022-09-29T11:04:58;32.80;41.60
19025;DHT22;9645;51.448;6.260;2022-09-29T11:07:27;32.00;39.00
19025;DHT22;9645;51.448;6.260;2022-09-29T11:09:54;32.10;41.30
19025;DHT22;9645;51.448;6.260;2022-09-29T11:12:31;31.20;40.00
19025;DHT22;9645;51.448;6.260;2022-09-29T11:14:59;31.00;40.40
19025;DHT22;9645;51.448;6.260;2022-09-29T11:17:29;31.80;43.20
19025;DHT22;9645;51.448;6.260;2022-09-29T11:19:59;31.20;41.60
19025;DHT22;9645;51.448;6.260;2022-09-29T11:25:53;31.70;43.10
19025;DHT22;9645;51.448;6.260;2022-09-29T11:31:37;33.70;38.80
19025;DHT22;9645;51.448;6.260;2022-09-29T11:34:39;32.90;38.60
19025;DHT22;9645;51.448;6.260;2022-09-29T11:37:16;32.50;37.70
19025;DHT22;9645;51.448;6.260;2022-09-29T11:39:51;29.80;36.60
19025;DHT22;9645;51.448;6.260;2022-09-29T11:42:30;28.80;42.50
19025;DHT22;9645;51.448;6.260;2022-09-29T11:45:03;27.80;40.50
19025;DHT22;9645;51.448;6.260;2022-09-29T11:48:02;26.30;45.00
19025;DHT22;9645;51.448;6.260;2022-09-29T11:50:43;26.80;52.60
19025;DHT22;9645;51.448;6.260;2022-09-29T11:53:33;28.00;49.50
19025;DHT22;9645;51.448;6.260;2022-09-29T11:56:24;28.50;46.50
19025;DHT22;9645;51.448;6.260;2022-09-29T12:02:16;30.50;41.80
19025;DHT22;9645;51.448;6.260;2022-09-29T12:04:54;30.60;41.80
19025;DHT22;9645;51.448;6.260;2022-09-29T12:07:33;30.90;41.60
19025;DHT22;9645;51.448;6.260;2022-09-29T12:10:23;30.60;40.30
19025;DHT22;9645;51.448;6.260;2022-09-29T12:12:58;30.50;41.50
19025;DHT22;9645;51.448;6.260;2022-09-29T12:15:40;31.30;41.40
19025;DHT22;9645;51.448;6.260;2022-09-29T12:18:13;31.90;40.20
19025;DHT22;9645;51.448;6.260;2022-09-29T12:20:43;32.30;38.00
19025;DHT22;9645;51.448;6.260;2022-09-29T12:23:13;31.70;37.50
19025;DHT22;9645;51.448;6.260;2022-09-29T12:25:51;31.10;39.40
19025;DHT22;9645;51.448;6.260;2022-09-29T12:28:22;30.50;38.10
19025;DHT22;9645;51.448;6.260;2022-09-29T12:30:55;30.80;42.30
19025;DHT22;9645;51.448;6.260;2022-09-29T12:33:28;31.70;40.70
19025;DHT22;9645;51.448;6.260;2022-09-29T12:36:08;31.80;39.30
19025;DHT22;9645;51.448;6.260;2022-09-29T12:38:57;31.70;40.60
19025;DHT22;9645;51.448;6.260;2022-09-29T12:41:29;31.70;38.60
19025;DHT22;9645;51.448;6.260;2022-09-29T12:44:05;30.60;37.30
19025;DHT22;9645;51.448;6.260;2022-09-29T12:46:41;29.60;38.80
19025;DHT22;9645;51.448;6.260;2022-09-29T12:49:16;29.40;43.30
19025;DHT22;9645;51.448;6.260;2022-09-29T12:51:48;29.30;42.50
19025;DHT22;9645;51.448;6.260;2022-09-29T12:54:20;29.50;42.60
19025;DHT22;9645;51.448;6.260;2022-09-29T12:56:52;29.50;41.90
19025;DHT22;9645;51.448;6.260;2022-09-29T12:59:28;29.20;40.90
19025;DHT22;9645;51.448;6.260;2022-09-29T13:01:59;28.60;38.80
19025;DHT22;9645;51.448;6.260;2022-09-29T13:04:49;28.00;41.10
19025;DHT22;9645;51.448;6.260;2022-09-29T13:10:56;27.20;47.70
19025;DHT22;9645;51.448;6.260;2022-09-29T13:16:30;26.10;45.20
19025;DHT22;9645;51.448;6.260;2022-09-29T13:19:21;26.20;45.20
19025;DHT22;9645;51.448;6.260;2022-09-29T13:22:08;25.60;45.80
19025;DHT22;9645;51.448;6.260;2022-09-29T13:24:45;24.50;46.90
19025;DHT22;9645;51.448;6.260;2022-09-29T13:27:25;24.20;51.20
19025;DHT22;9645;51.448;6.260;2022-09-29T13:32:24;22.40;52.90
19025;DHT22;9645;51.448;6.260;2022-09-29T13:34:54;22.20;55.10
19025;DHT22;9645;51.448;6.260;2022-09-29T13:37:24;21.60;56.70
19025;DHT22;9645;51.448;6.260;2022-09-29T13:39:56;20.80;64.50
19025;DHT22;9645;51.448;6.260;2022-09-29T13:42:43;20.70;65.40
19025;DHT22;9645;51.448;6.260;2022-09-29T13:45:38;20.40;68.50
19025;DHT22;9645;51.448;6.260;2022-09-29T13:48:34;19.90;75.90
19025;DHT22;9645;51.448;6.260;2022-09-29T13:54:23;19.00;80.00
19025;DHT22;9645;51.448;6.260;2022-09-29T13:56:59;19.00;83.80
19025;DHT22;9645;51.448;6.260;2022-09-29T13:59:28;18.60;83.20
19025;DHT22;9645;51.448;6.260;2022-09-29T14:01:56;18.40;87.80
19025;DHT22;9645;51.448;6.260;2022-09-29T14:04:43;18.30;88.20
19025;DHT22;9645;51.448;6.260;2022-09-29T14:07:12;17.90;90.50
19025;DHT22;9645;51.448;6.260;2022-09-29T14:09:42;17.70;92.80
19025;DHT22;9645;51.448;6.260;2022-09-29T14:12:17;17.70;95.90
19025;DHT22;9645;51.448;6.260;2022-09-29T14:14:51;17.60;95.60
19025;DHT22;9645;51.448;6.260;2022-09-29T14:17:23;17.70;95.90
19025;DHT22;9645;51.448;6.260;2022-09-29T14:19:55;17.60;97.00
19025;DHT22;9645;51.448;6.260;2022-09-29T14:22:50;17.50;97.10
19025;DHT22;9645;51.448;6.260;2022-09-29T14:28:11;17.30;99.40
19025;DHT22;9645;51.448;6.260;2022-09-29T14:30:49;17.20;98.90
19025;DHT22;9645;51.448;6.260;2022-09-29T14:33:20;17.30;99.90
19025;DHT22;9645;51.448;6.260;2022-09-29T14:35:54;17.50;99.90
19025;DHT22;9645;51.448;6.260;2022-09-29T14:38:29;17.70;99.90
19025;DHT22;9645;51.448;6.260;2022-09-29T14:41:01;17.70;98.80
19025;DHT22;9645;51.448;6.260;2022-09-29T14:43:37;17.60;96.70
19025;DHT22;9645;51.448;6.260;2022-09-29T14:46:34;17.70;97.60
19025;DHT22;9645;51.448;6.260;2022-09-29T14:49:37;17.30;97.40
19025;DHT22;9645;51.448;6.260;2022-09-29T14:52:33;17.10;99.30
19025;DHT22;9645;51.448;6.260;2022-09-29T14:55:11;17.00;99.10
19025;DHT22;9645;51.448;6.260;2022-09-29T14:58:04;17.00;99.90
19025;DHT22;9645;51.448;6.260;2022-09-29T15:00:48;17.00;99.90
19025;DHT22;9645;51.448;6.260;2022-09-29T15:03:25;17.10;99.90
19025;DHT22;9645;51.448;6.260;2022-09-29T15:06:05;17.40;99.90
19025;DHT22;9645;51.448;6.260;2022-09-29T15:08:32;17.60;99.10
19025;DHT22;9645;51.448;6.260;2022-09-29T15:11:01;17.70;98.00
19025;DHT22;9645;51.448;6.260;2022-09-29T15:13:29;17.60;96.30
19025;DHT22;9645;51.448;6.260;2022-09-29T15:16:01;17.70;97.00
19025;DHT22;9645;51.448;6.260;2022-09-29T15:18:46;17.70;97.40
19025;DHT22;9645;51.448;6.260;2022-09-29T15:21:21;17.70;97.20
19025;DHT22;9645;51.448;6.260;2022-09-29T15:26:50;17.50;98.20
19025;DHT22;9645;51.448;6.260;2022-09-29T15:29:18;17.40;98.30
19025;DHT22;9645;51.448;6.260;2022-09-29T15:31:46;17.30;97.70
19025;DHT22;9645;51.448;6.260;2022-09-29T15:34:18;17.20;97.90
19025;DHT22;9645;51.448;6.260;2022-09-29T15:36:47;17.20;98.60
19025;DHT22;9645;51.448;6.260;2022-09-29T15:39:41;17.10;99.40
19025;DHT22;9645;51.448;6.260;2022-09-29T15:42:21;17.20;99.90
19025;DHT22;9645;51.448;6.260;2022-09-29T15:44:53;17.40;99.90
19025;DHT22;9645;51.448;6.260;2022-09-29T15:47:33;17.50;99.90
19025;DHT22;9645;51.448;6.260;2022-09-29T15:50:05;17.60;99.90
19025;DHT22;9645;51.448;6.260;2022-09-29T15:52:42;17.70;99.60
19025;DHT22;9645;51.448;6.260;2022-09-29T15:55:12;17.60;99.90
19025;DHT22;9645;51.448;6.260;2022-09-29T15:57:43;17.50;99.90
19025;DHT22;9645;51.448;6.260;2022-09-29T16:03:27;17.10;99.90
19025;DHT22;9645;51.448;6.260;2022-09-29T16:06:05;17.10;99.90
19025;DHT22;9645;51.448;6.260;2022-09-29T16:08:38;17.10;99.90
19025;DHT22;9645;51.448;6.260;2022-09-29T16:11:13;17.00;99.90
19025;DHT22;9645;51.448;6.260;2022-09-29T16:13:49;16.80;99.90
19025;DHT22;9645;51.448;6.260;2022-09-29T16:16:25;16.70;99.90
19025;DHT22;9645;51.448;6.260;2022-09-29T16:18:58;16.60;99.90
19025;DHT22;9645;51.448;6.260;2022-09-29T16:21:32;16.40;99.90
19025;DHT22;9645;51.448;6.260;2022-09-29T16:24:07;16.30;99.90
19025;DHT22;9645;51.448;6.260;2022-09-29T16:26:38;16.20;99.90
19025;DHT22;9645;51.448;6.260;2022-09-29T16:29:30;16.10;99.90
19025;DHT22;9645;51.448;6.260;2022-09-29T16:31:59;15.90;99.90
19025;DHT22;9645;51.448;6.260;2022-09-29T16:34:29;15.80;99.90
19025;DHT22;9645;51.448;6.260;2022-09-29T16:37:00;15.60;99.90
19025;DHT22;9645;51.448;6.260;2022-09-29T16:39:30;15.40;99.90
19025;DHT22;9645;51.448;6.260;2022-09-29T16:42:00;15.20;99.90
19025;DHT22;9645;51.448;6.260;2022-09-29T16:44:31;14.90;99.90
19025;DHT22;9645;51.448;6.260;2022-09-29T16:47:01;14.90;99.90
19025;DHT22;9645;51.448;6.260;2022-09-29T16:49:31;14.80;99.90
19025;DHT22;9645;51.448;6.260;2022-09-29T16:52:05;14.60;99.90
19025;DHT22;9645;51.448;6.260;2022-09-29T16:54:40;14.40;99.90
19025;DHT22;9645;51.448;6.260;2022-09-29T16:57:20;14.20;99.90
19025;DHT22;9645;51.448;6.260;2022-09-29T16:59:49;14.00;99.90
19025;DHT22;9645;51.448;6.260;2022-09-29T17:02:17;13.80;99.90
19025;DHT22;9645;51.448;6.260;2022-09-29T17:04:44;13.60;99.90
19025;DHT22;9645;51.448;6.260;2022-09-29T17:07:14;13.50;99.90
19025;DHT22;9645;51.448;6.260;2022-09-29T17:09:43;13.30;99.90